createdAt,value
2022-08-27T00:02:08.229Z,22.20
2022-08-27T00:04:36.573Z,22.20
2022-08-27T00:07:05.651Z,22.20
2022-08-27T00:09:33.058Z,22.20
2022-08-27T00:12:00.544Z,22.20
2022-08-27T00:14:28.953Z,22.20
2022-08-27T00:16:57.212Z,22.20
2022-08-27T00:19:25.027Z,22.20
2022-08-27T00:21:52.340Z,22.20
2022-08-27T00:24:19.621Z,22.20
2022-08-27T00:26:47.119Z,22.20
2022-08-27T00:29:14.581Z,22.20
2022-08-27T00:31:42.085Z,22.20
2022-08-27T00:34:13.012Z,22.20
2022-08-27T00:36:41.433Z,22.20
2022-08-27T00:39:08.863Z,22.20
2022-08-27T00:41:36.780Z,22.20
2022-08-27T00:44:05.795Z,22.20
2022-08-27T00:46:55.294Z,22.20
2022-08-27T00:49:27.751Z,22.20
2022-08-27T00:52:04.252Z,22.20
2022-08-27T00:54:32.387Z,22.20
2022-08-27T00:57:01.141Z,22.20
2022-08-27T00:59:30.986Z,22.10
2022-08-27T01:02:18.036Z,22.10
2022-08-27T01:05:02.740Z,22.10
2022-08-27T01:07:33.290Z,22.10
2022-08-27T01:10:04.236Z,22.20
2022-08-27T01:12:33.484Z,22.10
2022-08-27T01:15:03.208Z,22.10
2022-08-27T01:17:31.888Z,22.10
2022-08-27T01:20:03.969Z,22.10
2022-08-27T01:22:59.201Z,22.10
2022-08-27T01:25:28.147Z,22.10
2022-08-27T01:27:59.458Z,22.10
2022-08-27T01:30:27.448Z,22.10
2022-08-27T01:32:55.712Z,22.10
2022-08-27T01:35:24.433Z,22.00
2022-08-27T01:37:54.335Z,22.00
2022-08-27T01:40:25.307Z,22.10
2022-08-27T01:42:55.586Z,22.00
2022-08-27T01:45:30.122Z,22.00
2022-08-27T01:47:58.730Z,22.00
2022-08-27T01:50:32.540Z,22.00
2022-08-27T01:53:06.282Z,22.00
2022-08-27T01:55:34.142Z,22.00
2022-08-27T01:58:01.726Z,22.00
2022-08-27T02:00:32.787Z,22.00
2022-08-27T02:03:00.688Z,22.00
2022-08-27T02:05:30.303Z,22.00
2022-08-27T02:07:59.211Z,22.00
2022-08-27T02:10:35.095Z,22.00
2022-08-27T02:13:02.993Z,22.00
2022-08-27T02:15:30.494Z,22.10
2022-08-27T02:17:57.892Z,22.00
2022-08-27T02:20:29.286Z,22.00
2022-08-27T02:22:58.203Z,22.00
2022-08-27T02:25:27.627Z,22.00
2022-08-27T02:28:00.166Z,22.00
2022-08-27T02:30:31.902Z,22.00
2022-08-27T02:33:01.265Z,22.00
2022-08-27T02:35:30.698Z,22.00
2022-08-27T02:37:58.516Z,22.00
2022-08-27T02:40:26.207Z,22.00
2022-08-27T02:42:53.987Z,22.10
2022-08-27T02:45:21.482Z,22.00
2022-08-27T02:47:48.798Z,22.00
2022-08-27T02:50:16.730Z,22.00
2022-08-27T02:52:45.311Z,22.00
2022-08-27T02:55:16.087Z,22.00
2022-08-27T02:57:45.414Z,22.00
2022-08-27T03:00:15.918Z,22.00
2022-08-27T03:02:43.359Z,22.00
2022-08-27T03:05:13.195Z,21.90
2022-08-27T03:07:41.147Z,22.00
2022-08-27T03:10:10.332Z,21.90
2022-08-27T03:12:38.989Z,21.90
2022-08-27T03:15:09.937Z,22.00
2022-08-27T03:17:56.573Z,21.90
2022-08-27T03:20:25.705Z,21.90
2022-08-27T03:22:53.764Z,21.90
2022-08-27T03:25:21.687Z,21.90
2022-08-27T03:27:49.142Z,21.80
2022-08-27T03:30:22.412Z,21.90
2022-08-27T03:32:50.314Z,21.90
2022-08-27T03:35:19.607Z,21.90
2022-08-27T03:37:47.302Z,21.80
2022-08-27T03:40:16.449Z,21.80
2022-08-27T03:42:44.049Z,21.80
2022-08-27T03:45:12.308Z,21.80
2022-08-27T03:47:40.441Z,21.90
2022-08-27T03:50:09.338Z,21.80
2022-08-27T03:52:37.558Z,21.80
2022-08-27T03:55:07.585Z,21.80
2022-08-27T03:57:35.560Z,21.80
2022-08-27T04:00:04.663Z,21.80
2022-08-27T04:02:41.961Z,21.80
2022-08-27T04:05:11.811Z,21.80
2022-08-27T04:07:40.878Z,21.80
2022-08-27T04:10:10.231Z,21.80
2022-08-27T04:12:38.998Z,21.80
2022-08-27T04:15:08.463Z,21.80
2022-08-27T04:17:36.020Z,21.80
2022-08-27T04:20:31.745Z,21.70
2022-08-27T04:22:54.474Z,21.70
2022-08-27T04:25:21.908Z,21.70
2022-08-27T04:27:49.410Z,21.70
2022-08-27T04:30:16.875Z,21.70
2022-08-27T04:32:44.321Z,21.70
2022-08-27T04:35:12.129Z,21.80
2022-08-27T04:37:40.408Z,21.80
2022-08-27T04:40:10.304Z,21.80
2022-08-27T04:42:38.016Z,21.80
2022-08-27T04:45:06.467Z,21.80
2022-08-27T04:47:34.774Z,21.80
2022-08-27T04:50:03.220Z,21.80
2022-08-27T04:52:33.313Z,21.90
2022-08-27T04:55:08.477Z,21.90
2022-08-27T04:57:37.864Z,21.90
2022-08-27T05:00:07.746Z,21.90
2022-08-27T05:02:35.283Z,22.00
2022-08-27T05:05:03.090Z,22.00
2022-08-27T05:07:30.675Z,22.00
2022-08-27T05:09:58.315Z,22.00
2022-08-27T05:12:25.975Z,22.00
2022-08-27T05:14:54.656Z,22.00
2022-08-27T05:17:22.263Z,22.00
2022-08-27T05:19:49.889Z,22.00
2022-08-27T05:22:17.279Z,22.00
2022-08-27T05:24:49.553Z,22.10
2022-08-27T05:27:18.655Z,22.10
2022-08-27T05:29:45.949Z,22.10
2022-08-27T05:32:13.679Z,22.10
2022-08-27T05:34:41.024Z,22.10
2022-08-27T05:37:08.437Z,22.10
2022-08-27T05:39:36.056Z,22.10
2022-08-27T05:42:03.635Z,22.10
2022-08-27T05:44:41.270Z,22.10
2022-08-27T05:47:09.280Z,22.20
2022-08-27T05:49:37.548Z,22.10
2022-08-27T05:52:09.348Z,22.10
2022-08-27T05:54:37.169Z,22.20
2022-08-27T05:57:04.619Z,22.20
2022-08-27T05:59:50.884Z,22.20
2022-08-27T06:02:20.408Z,22.20
2022-08-27T06:04:48.170Z,22.20
2022-08-27T06:07:16.042Z,22.20
2022-08-27T06:09:43.380Z,22.20
2022-08-27T06:12:12.001Z,22.20
2022-08-27T06:14:39.353Z,22.20
2022-08-27T06:17:06.650Z,22.20
2022-08-27T06:19:36.341Z,22.10
2022-08-27T06:22:10.443Z,22.10
2022-08-27T06:24:42.444Z,22.10
2022-08-27T06:27:13.399Z,22.10
2022-08-27T06:29:41.547Z,22.10
2022-08-27T06:32:09.843Z,22.10
2022-08-27T06:34:38.795Z,22.10
2022-08-27T06:37:07.414Z,22.10
2022-08-27T06:39:36.181Z,22.10
2022-08-27T06:42:06.365Z,22.20
2022-08-27T06:44:34.294Z,22.20
2022-08-27T06:47:03.717Z,22.20
2022-08-27T06:49:31.833Z,22.30
2022-08-27T06:51:59.640Z,22.30
2022-08-27T06:54:27.138Z,22.30
2022-08-27T06:56:57.820Z,22.30
2022-08-27T06:59:25.428Z,22.40
2022-08-27T07:01:53.087Z,22.40
2022-08-27T07:04:27.843Z,22.40
2022-08-27T07:07:02.285Z,22.50
2022-08-27T07:09:32.394Z,22.50
2022-08-27T07:12:00.890Z,22.50
2022-08-27T07:14:31.868Z,22.50
2022-08-27T07:17:04.197Z,22.50
2022-08-27T07:19:32.209Z,22.50
2022-08-27T07:22:00.030Z,22.50
2022-08-27T07:24:28.098Z,22.60
2022-08-27T07:26:55.634Z,22.50
2022-08-27T07:29:23.129Z,22.60
2022-08-27T07:31:50.568Z,22.60
2022-08-27T07:34:18.056Z,22.60
2022-08-27T07:36:45.379Z,22.70
2022-08-27T07:39:15.716Z,22.60
2022-08-27T07:42:09.344Z,22.70
2022-08-27T07:44:37.018Z,22.70
2022-08-27T07:47:04.363Z,22.80
2022-08-27T07:49:34.890Z,22.80
2022-08-27T07:52:03.664Z,22.80
2022-08-27T07:54:31.558Z,22.80
2022-08-27T07:56:59.452Z,22.90
2022-08-27T07:59:27.973Z,22.90
2022-08-27T08:01:56.872Z,23.00
2022-08-27T08:04:26.528Z,23.00
2022-08-27T08:06:55.639Z,23.10
2022-08-27T08:09:25.012Z,23.20
2022-08-27T08:11:53.129Z,23.20
2022-08-27T08:14:21.634Z,23.30
2022-08-27T08:16:49.347Z,23.40
2022-08-27T08:19:17.328Z,23.40
2022-08-27T08:21:44.800Z,23.40
2022-08-27T08:24:12.429Z,23.40
2022-08-27T08:26:41.820Z,23.40
2022-08-27T08:29:09.207Z,23.50
2022-08-27T08:31:42.596Z,23.50
2022-08-27T08:34:10.445Z,23.50
2022-08-27T08:36:42.935Z,23.50
2022-08-27T08:39:14.299Z,23.50
2022-08-27T08:41:52.369Z,23.50
2022-08-27T08:44:35.457Z,23.60
2022-08-27T08:47:19.873Z,23.70
2022-08-27T08:50:04.901Z,23.80
2022-08-27T08:52:35.515Z,24.00
2022-08-27T08:55:40.274Z,24.20
2022-08-27T08:58:38.815Z,24.40
2022-08-27T09:01:09.990Z,24.60
2022-08-27T09:03:42.051Z,24.80
2022-08-27T09:06:22.371Z,24.90
2022-08-27T09:08:50.015Z,25.00
2022-08-27T09:11:20.631Z,25.10
2022-08-27T09:13:53.260Z,25.10
2022-08-27T09:16:21.416Z,25.10
2022-08-27T09:18:52.454Z,25.20
2022-08-27T09:21:52.445Z,25.40
2022-08-27T09:24:44.375Z,25.60
2022-08-27T09:27:14.835Z,25.90
2022-08-27T09:29:56.114Z,26.20
2022-08-27T09:32:26.936Z,26.30
2022-08-27T09:35:03.427Z,26.40
2022-08-27T09:37:38.683Z,26.50
2022-08-27T09:40:22.892Z,26.60
2022-08-27T09:43:05.860Z,26.80
2022-08-27T09:45:34.797Z,26.90
2022-08-27T09:48:13.378Z,27.20
2022-08-27T09:50:50.826Z,27.30
2022-08-27T09:53:21.795Z,27.40
2022-08-27T09:55:54.647Z,27.40
2022-08-27T09:58:30.575Z,27.40
2022-08-27T10:01:07.297Z,27.30
2022-08-27T10:03:34.880Z,27.20
2022-08-27T10:06:02.350Z,27.10
2022-08-27T10:08:42.155Z,27.00
2022-08-27T10:11:17.157Z,27.00
2022-08-27T10:14:02.002Z,26.90
2022-08-27T10:16:29.498Z,26.90
2022-08-27T10:19:15.952Z,27.00
2022-08-27T10:21:54.097Z,27.00
2022-08-27T10:25:00.751Z,27.10
2022-08-27T10:27:38.886Z,27.30
2022-08-27T10:30:11.787Z,27.40
2022-08-27T10:33:03.864Z,27.50
2022-08-27T10:35:31.683Z,27.60
2022-08-27T10:38:06.160Z,27.70
2022-08-27T10:40:54.285Z,27.80
2022-08-27T10:43:42.538Z,27.80
2022-08-27T10:46:38.248Z,27.90
2022-08-27T10:49:28.135Z,27.80
2022-08-27T10:52:22.773Z,27.90
2022-08-27T10:55:12.863Z,28.00
2022-08-27T10:58:06.334Z,28.10
2022-08-27T11:00:55.316Z,28.10
2022-08-27T11:03:33.983Z,28.30
2022-08-27T11:06:21.654Z,28.30
2022-08-27T11:09:07.470Z,28.30
2022-08-27T11:14:37.445Z,28.40
2022-08-27T11:17:32.082Z,28.40
2022-08-27T11:20:05.070Z,28.50
2022-08-27T11:22:52.317Z,28.50
2022-08-27T11:25:35.631Z,28.50
2022-08-27T11:28:05.350Z,28.50
2022-08-27T11:30:51.404Z,28.50
2022-08-27T11:33:29.056Z,28.60
2022-08-27T11:36:13.597Z,28.50
2022-08-27T11:39:04.342Z,28.50
2022-08-27T11:41:52.537Z,28.40
2022-08-27T11:44:23.958Z,28.30
2022-08-27T11:47:14.808Z,28.20
2022-08-27T11:49:48.827Z,28.10
2022-08-27T11:52:29.836Z,28.00
2022-08-27T11:55:22.639Z,27.90
2022-08-27T11:58:04.269Z,27.80
2022-08-27T12:00:35.478Z,27.80
2022-08-27T12:03:11.310Z,27.70
2022-08-27T12:06:05.122Z,27.70
2022-08-27T12:08:34.889Z,27.60
2022-08-27T12:11:17.210Z,27.60
2022-08-27T12:14:00.751Z,27.50
2022-08-27T12:16:58.196Z,27.50
2022-08-27T12:19:56.885Z,27.50
2022-08-27T12:23:25.432Z,27.50
2022-08-27T12:26:35.503Z,27.50
2022-08-27T12:29:44.079Z,27.60
2022-08-27T12:32:26.335Z,27.60
2022-08-27T12:35:21.379Z,27.70
2022-08-27T12:38:11.936Z,27.70
2022-08-27T12:41:00.116Z,27.80
2022-08-27T12:43:30.063Z,27.80
2022-08-27T12:46:07.260Z,27.90
2022-08-27T12:48:42.306Z,27.90
2022-08-27T12:51:14.329Z,27.90
2022-08-27T12:53:56.983Z,27.90
2022-08-27T12:56:24.563Z,27.90
2022-08-27T12:59:31.721Z,27.90
2022-08-27T13:02:04.866Z,27.80
2022-08-27T13:04:34.179Z,27.80
2022-08-27T13:07:01.996Z,27.80
2022-08-27T13:09:35.940Z,27.70
2022-08-27T13:12:07.242Z,27.60
2022-08-27T13:14:39.060Z,27.60
2022-08-27T13:17:14.615Z,27.50
2022-08-27T13:19:52.969Z,27.50
2022-08-27T13:22:43.624Z,27.40
2022-08-27T13:25:33.225Z,27.40
2022-08-27T13:28:22.431Z,27.40
2022-08-27T13:30:50.863Z,27.40
2022-08-27T13:33:24.784Z,27.40
2022-08-27T13:35:52.588Z,27.40
2022-08-27T13:38:22.401Z,27.50
2022-08-27T13:41:10.238Z,27.50
2022-08-27T13:43:42.330Z,27.50
2022-08-27T13:46:30.830Z,27.60
2022-08-27T13:48:59.756Z,27.70
2022-08-27T13:51:30.990Z,27.90
2022-08-27T13:54:13.894Z,28.00
2022-08-27T13:57:03.545Z,28.10
2022-08-27T13:59:31.961Z,28.30
2022-08-27T14:02:15.840Z,28.30
2022-08-27T14:04:47.684Z,28.40
2022-08-27T14:07:29.348Z,28.50
2022-08-27T14:10:02.602Z,28.60
2022-08-27T14:12:41.478Z,28.60
2022-08-27T14:15:35.826Z,28.70
2022-08-27T14:18:07.499Z,28.70
2022-08-27T14:20:37.031Z,28.80
2022-08-27T14:23:05.394Z,28.80
2022-08-27T14:25:34.599Z,28.80
2022-08-27T14:28:02.671Z,28.80
2022-08-27T14:30:31.467Z,28.90
2022-08-27T14:33:00.925Z,28.90
2022-08-27T14:35:33.466Z,28.80
2022-08-27T14:38:22.557Z,28.90
2022-08-27T14:40:53.611Z,28.90
2022-08-27T14:43:22.950Z,28.90
2022-08-27T14:45:51.999Z,28.90
2022-08-27T14:48:28.555Z,28.90
2022-08-27T14:50:57.887Z,28.90
2022-08-27T14:53:26.335Z,28.90
2022-08-27T14:55:54.874Z,28.90
2022-08-27T14:58:22.503Z,28.80
2022-08-27T15:00:52.002Z,28.80
2022-08-27T15:03:19.869Z,28.70
2022-08-27T15:05:47.365Z,28.60
2022-08-27T15:08:16.351Z,28.50
2022-08-27T15:10:47.308Z,28.40
2022-08-27T15:13:15.031Z,28.30
2022-08-27T15:15:42.791Z,28.20
2022-08-27T15:18:10.759Z,28.20
2022-08-27T15:20:40.112Z,28.00
2022-08-27T15:23:09.656Z,28.00
2022-08-27T15:25:37.162Z,28.00
2022-08-27T15:28:06.812Z,27.90
2022-08-27T15:30:36.771Z,27.80
2022-08-27T15:33:06.213Z,27.90
2022-08-27T15:35:34.330Z,27.80
2022-08-27T15:38:02.828Z,27.70
2022-08-27T15:40:34.669Z,27.70
2022-08-27T15:43:06.772Z,27.70
2022-08-27T15:45:36.080Z,27.70
2022-08-27T15:48:04.120Z,27.60
2022-08-27T15:50:32.543Z,27.50
2022-08-27T15:53:03.261Z,27.50
2022-08-27T15:55:34.774Z,27.50
2022-08-27T15:58:03.038Z,27.50
2022-08-27T16:00:33.736Z,27.50
2022-08-27T16:03:04.996Z,27.50
2022-08-27T16:05:35.501Z,27.50
2022-08-27T16:08:04.129Z,27.50
2022-08-27T16:10:31.675Z,27.40
2022-08-27T16:12:59.147Z,27.40
2022-08-27T16:15:26.980Z,27.40
2022-08-27T16:18:00.795Z,27.40
2022-08-27T16:20:28.705Z,27.30
2022-08-27T16:22:56.503Z,27.30
2022-08-27T16:25:23.918Z,27.20
2022-08-27T16:27:51.636Z,27.10
2022-08-27T16:30:20.535Z,27.00
2022-08-27T16:32:50.774Z,27.00
2022-08-27T16:35:19.101Z,26.90
2022-08-27T16:37:46.600Z,26.80
2022-08-27T16:40:15.479Z,26.80
2022-08-27T16:42:48.463Z,26.70
2022-08-27T16:45:17.960Z,26.60
2022-08-27T16:48:03.760Z,26.50
2022-08-27T16:50:34.127Z,26.40
2022-08-27T16:53:07.365Z,26.30
2022-08-27T16:55:37.617Z,26.20
2022-08-27T16:58:09.100Z,26.10
2022-08-27T17:00:38.738Z,26.00
2022-08-27T17:03:07.890Z,25.90
2022-08-27T17:05:35.537Z,25.80
2022-08-27T17:08:03.988Z,25.70
2022-08-27T17:10:37.588Z,25.60
2022-08-27T17:13:08.323Z,25.60
2022-08-27T17:15:36.365Z,25.50
2022-08-27T17:18:04.303Z,25.40
2022-08-27T17:20:33.432Z,25.40
2022-08-27T17:23:01.803Z,25.30
2022-08-27T17:25:30.372Z,25.30
2022-08-27T17:28:00.480Z,25.20
2022-08-27T17:30:28.255Z,25.10
2022-08-27T17:32:55.852Z,25.10
2022-08-27T17:35:23.406Z,25.00
2022-08-27T17:37:51.117Z,25.00
2022-08-27T17:40:18.813Z,24.90
2022-08-27T17:42:46.588Z,24.80
2022-08-27T17:45:14.100Z,24.80
2022-08-27T17:47:41.719Z,24.70
2022-08-27T17:50:10.121Z,24.70
2022-08-27T17:52:40.496Z,24.60
2022-08-27T17:55:08.479Z,24.60
2022-08-27T17:57:41.047Z,24.60
2022-08-27T18:00:12.908Z,24.50
2022-08-27T18:02:47.342Z,24.50
2022-08-27T18:05:16.384Z,24.50
2022-08-27T18:07:52.273Z,24.40
2022-08-27T18:10:23.699Z,24.40
2022-08-27T18:12:52.487Z,24.40
2022-08-27T18:15:26.268Z,24.30
2022-08-27T18:17:55.281Z,24.30
2022-08-27T18:20:25.910Z,24.20
2022-08-27T18:22:53.813Z,24.20
2022-08-27T18:25:26.558Z,24.10
2022-08-27T18:27:57.972Z,24.10
2022-08-27T18:30:26.157Z,24.10
2022-08-27T18:32:53.769Z,24.00
2022-08-27T18:35:30.616Z,24.00
2022-08-27T18:37:58.243Z,24.00
2022-08-27T18:40:28.887Z,24.00
2022-08-27T18:42:57.679Z,24.00
2022-08-27T18:45:28.461Z,23.90
2022-08-27T18:47:59.369Z,23.90
2022-08-27T18:50:27.642Z,23.90
2022-08-27T18:52:56.592Z,23.90
2022-08-27T18:55:28.021Z,23.80
2022-08-27T18:57:55.835Z,23.80
2022-08-27T19:00:24.799Z,23.80
2022-08-27T19:02:53.448Z,23.80
2022-08-27T19:05:25.078Z,23.80
2022-08-27T19:07:53.367Z,23.80
2022-08-27T19:10:21.231Z,23.80
2022-08-27T19:12:49.631Z,23.80
2022-08-27T19:15:17.678Z,23.80
2022-08-27T19:17:50.229Z,23.70
2022-08-27T19:20:18.682Z,23.70
2022-08-27T19:22:47.439Z,23.70
2022-08-27T19:25:16.684Z,23.70
2022-08-27T19:27:45.323Z,23.70
2022-08-27T19:30:15.050Z,23.70
2022-08-27T19:32:43.427Z,23.60
2022-08-27T19:35:11.012Z,23.60
2022-08-27T19:37:43.570Z,23.60
2022-08-27T19:40:14.506Z,23.60
2022-08-27T19:42:42.582Z,23.60
2022-08-27T19:45:11.840Z,23.50
2022-08-27T19:47:39.565Z,23.50
2022-08-27T19:50:10.020Z,23.50
2022-08-27T19:52:38.241Z,23.50
2022-08-27T19:55:14.435Z,23.50
2022-08-27T19:57:44.176Z,23.50
2022-08-27T20:00:13.740Z,23.40
2022-08-27T20:02:41.144Z,23.40
2022-08-27T20:05:24.117Z,23.40
2022-08-27T20:07:53.755Z,23.40
2022-08-27T20:10:25.775Z,23.40
2022-08-27T20:12:59.673Z,23.40
2022-08-27T20:15:27.431Z,23.40
2022-08-27T20:17:55.197Z,23.30
2022-08-27T20:20:24.566Z,23.30
2022-08-27T20:22:52.775Z,23.30
2022-08-27T20:25:20.381Z,23.30
2022-08-27T20:27:47.972Z,23.30
2022-08-27T20:30:16.542Z,23.30
2022-08-27T20:32:46.723Z,23.30
2022-08-27T20:35:15.827Z,23.30
2022-08-27T20:37:44.016Z,23.30
2022-08-27T20:40:16.358Z,23.30
2022-08-27T20:42:44.539Z,23.20
2022-08-27T20:45:13.732Z,23.20
2022-08-27T20:47:43.276Z,23.20
2022-08-27T20:50:12.868Z,23.20
2022-08-27T20:52:41.892Z,23.20
2022-08-27T20:55:09.867Z,23.20
2022-08-27T20:57:37.464Z,23.20
2022-08-27T21:00:21.893Z,23.20
2022-08-27T21:02:49.232Z,23.20
2022-08-27T21:05:19.191Z,23.20
2022-08-27T21:07:48.686Z,23.20
2022-08-27T21:10:16.719Z,23.20
2022-08-27T21:12:44.694Z,23.20
2022-08-27T21:15:13.019Z,23.20
2022-08-27T21:17:40.269Z,23.10
2022-08-27T21:20:12.855Z,23.10
2022-08-27T21:22:43.216Z,23.10
2022-08-27T21:25:13.185Z,23.10
2022-08-27T21:27:41.846Z,23.10
2022-08-27T21:30:11.507Z,23.10
2022-08-27T21:32:39.336Z,23.10
2022-08-27T21:35:07.678Z,23.10
2022-08-27T21:37:36.352Z,23.10
2022-08-27T21:40:06.658Z,23.10
2022-08-27T21:42:35.421Z,23.00
2022-08-27T21:45:03.835Z,23.00
2022-08-27T21:47:31.340Z,23.00
2022-08-27T21:49:59.243Z,23.00
2022-08-27T21:52:26.882Z,23.00
2022-08-27T21:54:54.775Z,22.90
2022-08-27T21:57:22.457Z,22.90
2022-08-27T21:59:51.150Z,23.00
2022-08-27T22:02:39.442Z,22.90
2022-08-27T22:05:08.632Z,22.90
2022-08-27T22:07:36.400Z,22.90
2022-08-27T22:10:05.893Z,22.80
2022-08-27T22:12:33.714Z,22.90
2022-08-27T22:15:01.630Z,22.80
2022-08-27T22:17:29.555Z,22.80
2022-08-27T22:19:57.239Z,22.80
2022-08-27T22:22:24.631Z,22.80
2022-08-27T22:24:58.782Z,22.80
2022-08-27T22:27:26.807Z,22.80
2022-08-27T22:29:54.623Z,22.80
2022-08-27T22:32:22.276Z,22.70
2022-08-27T22:34:49.831Z,22.70
2022-08-27T22:37:17.764Z,22.70
2022-08-27T22:39:45.438Z,22.70
2022-08-27T22:42:13.969Z,22.70
2022-08-27T22:44:45.580Z,22.70
2022-08-27T22:47:14.880Z,22.70
2022-08-27T22:49:43.575Z,22.70
2022-08-27T22:52:11.642Z,22.70
2022-08-27T22:54:39.783Z,22.70
2022-08-27T22:57:07.128Z,22.70
2022-08-27T22:59:39.110Z,22.70
2022-08-27T23:02:10.393Z,22.60
2022-08-27T23:04:54.593Z,22.60
2022-08-27T23:07:23.205Z,22.60
2022-08-27T23:09:50.705Z,22.60
2022-08-27T23:12:19.732Z,22.60
2022-08-27T23:14:47.472Z,22.60
2022-08-27T23:17:15.992Z,22.60
2022-08-27T23:19:45.489Z,22.50
2022-08-27T23:22:13.103Z,22.50
2022-08-27T23:25:00.404Z,22.50
2022-08-27T23:27:30.649Z,22.50
2022-08-27T23:29:59.708Z,22.40
2022-08-27T23:32:28.592Z,22.50
2022-08-27T23:34:56.627Z,22.40
2022-08-27T23:37:25.700Z,22.40
2022-08-27T23:39:53.728Z,22.40
2022-08-27T23:42:21.847Z,22.40
2022-08-27T23:44:49.363Z,22.40
2022-08-27T23:47:17.685Z,22.40
2022-08-27T23:49:45.474Z,22.30
2022-08-27T23:52:13.483Z,22.30
2022-08-27T23:54:40.796Z,22.20
2022-08-27T23:57:08.069Z,22.20
2022-08-27T23:59:35.714Z,22.20
